Lonesome Dove — WDA9918 — position and weather

sailwx.info

Track history (hours):
 
Tides and Currents Weather Stations Pressure Air Temp Water Temp Dewpoint Dewpoint Depression Visibility Wind Speed Wind Dir Waves Ship Positions

Lonesome Dove

Owner: O'Connell, Gene D, Long Beach, CA. More information available from US FCC via Universal Licensing System and Coast Guard Vessel Documentation Center.

Last reported at 2017-Oct-07 20:28 UTC. Time now 2017-Nov-19 21:50 UTC.
Position N 37°52' W 122°30'.
Warning: this ship's position is 43 days out of date.

Length 13 m.

Type: Pleasure craft. MMSI: 338184202.

Date/timePositionNaut miles runAvg speedWind from/ knotsBaromVisibWave heightAir tempDewpointWater temp
2017-Oct-07 20:28N 37°52' W 122°30'2 3.5
2017-Oct-07 19:53N 37°50' W 122°28'1 2.1
2017-Oct-07 19:30N 37°50' W 122°28'18 5.9
2017-Oct-07 16:32N 37°32' W 122°33'0 6.7
2017-Oct-07 16:30N 37°32' W 122°33'3 6.3
2017-Oct-07 16:00N 37°29' W 122°31'2 3.6
2017-Oct-07 15:30N 37°30' W 122°29'0 0.0
2017-Oct-07 14:54N 37°30' W 122°29'0 0.0
2017-Oct-07 01:45N 37°30' W 122°29'1 3.9
2017-Oct-07 01:30N 37°29' W 122°29'3 5.2
2017-Oct-07 00:59N 37°26' W 122°28'3 5.0
2017-Oct-07 00:18N 37°23' W 122°28'159 3.7
2017-Oct-05 05:14N 35°08' W 120°45'6 5.4
2017-Oct-05 04:12N 35°03' W 120°44'7 4.6
2017-Oct-05 02:43N 34°56' W 120°44'1 4.3
2017-Oct-05 02:24N 34°55' W 120°44'2 3.9
2017-Oct-05 02:00N 34°53' W 120°44'2 3.3
2017-Oct-05 01:30N 34°51' W 120°44'1 3.0
2017-Oct-05 01:00N 34°50' W 120°44'2 3.2
2017-Oct-05 00:30N 34°48' W 120°43'2 3.4
2017-Oct-04 23:58N 34°46' W 120°43'2 3.4
2017-Oct-04 23:27N 34°45' W 120°43'1 3.3
2017-Oct-04 23:00N 34°43' W 120°42'2 3.5
2017-Oct-04 22:29N 34°41' W 120°42'10 3.9
2017-Oct-04 19:49N 34°32' W 120°37'1 4.0
2017-Oct-04 19:30N 34°31' W 120°36'3 4.3
2017-Oct-04 18:47N 34°28' W 120°35'1 4.3
2017-Oct-04 18:27N 34°26' W 120°35'2 4.6
2017-Oct-04 17:56N 34°24' W 120°34'2 4.8
2017-Oct-04 17:30N 34°22' W 120°33'2 4.4
2017-Oct-04 17:00N 34°21' W 120°31'3 4.9
2017-Oct-04 16:29N 34°20' W 120°28'3 5.4
2017-Oct-04 16:00N 34°18' W 120°25'3 5.6
2017-Oct-04 15:30N 34°17' W 120°22'3 5.1
2017-Oct-04 15:00N 34°15' W 120°21'3 5.3
2017-Oct-04 14:30N 34°12' W 120°21'3 5.4
2017-Oct-04 14:00N 34°09' W 120°21'3 5.3
2017-Oct-04 13:30N 34°07' W 120°21'3 5.5
2017-Oct-04 12:57N 34°04' W 120°21'1 0.0
2017-Oct-03 19:39N 34°03' W 120°21'0 0.0
2017-Oct-03 16:04N 34°03' W 120°21'0 0.5
2017-Oct-03 15:58N 34°03' W 120°21'0 0.1
2017-Oct-03 15:28N 34°03' W 120°21'0 0.0
2017-Oct-03 14:52N 34°03' W 120°21'0 0.0
2017-Oct-03 14:00N 34°03' W 120°21'0 0.0
2017-Oct-03 13:00N 34°03' W 120°21'0 0.0
2017-Oct-03 12:18N 34°03' W 120°21'0 0.0
2017-Oct-03 12:00N 34°03' W 120°21'0 0.0
2017-Oct-03 11:24N 34°03' W 120°21'0 0.0
2017-Oct-03 10:54N 34°03' W 120°21'0 0.0
2017-Oct-03 10:00N 34°03' W 120°21'0 0.0
2017-Oct-03 09:24N 34°03' W 120°21'0 0.0
2017-Oct-03 08:57N 34°03' W 120°21'0 0.0
2017-Oct-03 08:06N 34°03' W 120°21'0 0.0
2017-Oct-03 08:00N 34°03' W 120°21'0 0.1
2017-Oct-03 07:15N 34°03' W 120°21'0 0.2
2017-Oct-03 06:59N 34°03' W 120°21'0 0.0
2017-Oct-02 23:52N 34°03' W 120°21'2 3.0
2017-Oct-02 23:21N 34°04' W 120°20'2 5.6
2017-Oct-02 23:00N 34°04' W 120°17'3 5.6
2017-Oct-02 22:28N 34°04' W 120°14'3 5.8
2017-Oct-02 21:59N 34°03' W 120°10'3 5.8
2017-Oct-02 21:30N 34°04' W 120°07'3 5.8
2017-Oct-02 20:59N 34°04' W 120°04'3 5.7
2017-Oct-02 20:30N 34°05' W 120°00'3 5.7
2017-Oct-02 19:55N 34°05' W 119°56'8 0.3
2017-Oct-01 21:57N 34°04' W 119°47'3 5.0
2017-Oct-01 21:23N 34°06' W 119°46'2 5.7
2017-Oct-01 20:57N 34°09' W 119°45'3 6.3
2017-Oct-01 20:27N 34°12' W 119°45'4 6.5
2017-Oct-01 19:54N 34°15' W 119°44'4 6.0
2017-Oct-01 19:11N 34°19' W 119°43'1 6.0
2017-Oct-01 18:59N 34°21' W 119°42'4 0.1
2017-Sep-30 01:58N 34°24' W 119°42'0 0.0
2017-Sep-29 23:28N 34°24' W 119°42'0 0.0
2017-Sep-29 22:20N 34°24' W 119°42'0 0.2
2017-Sep-29 21:58N 34°24' W 119°41'2 3.4
2017-Sep-29 21:29N 34°23' W 119°41'3 5.3
2017-Sep-29 20:54N 34°20' W 119°42'2 4.3
2017-Sep-29 20:20N 34°17' W 119°43'2 4.4
2017-Sep-29 19:50N 34°15' W 119°43'2 5.4
2017-Sep-29 19:24N 34°13' W 119°44'3 6.3
2017-Sep-29 18:59N 34°11' W 119°45'4 6.9
2017-Sep-29 18:24N 34°07' W 119°46'2 5.3
2017-Sep-29 18:00N 34°05' W 119°47'1 1.8
2017-Sep-29 17:19N 34°03' W 119°47'  
Track history (hours):
 
Tides and Currents Weather Stations Pressure Air Temp Water Temp Dewpoint Dewpoint Depression Visibility Wind Speed Wind Dir Waves Ship Positions

Lonesome Dove

Owner: O'Connell, Gene D, Long Beach, CA. More information available from US FCC via Universal Licensing System and Coast Guard Vessel Documentation Center.

Last reported at 2017-Oct-07 20:28 UTC. Time now 2017-Nov-19 21:50 UTC.
Position N 37°52' W 122°30'.
Warning: this ship's position is 43 days out of date.

Length 13 m.

Type: Pleasure craft. MMSI: 338184202.

Date/timePositionNaut miles runAvg speedWind from/ knotsBaromVisibWave heightAir tempDewpointWater temp
2017-Oct-07 20:28N 37°52' W 122°30'2 3.5
2017-Oct-07 19:53N 37°50' W 122°28'1 2.1
2017-Oct-07 19:30N 37°50' W 122°28'18 5.9
2017-Oct-07 16:32N 37°32' W 122°33'0 6.7
2017-Oct-07 16:30N 37°32' W 122°33'3 6.3
2017-Oct-07 16:00N 37°29' W 122°31'2 3.6
2017-Oct-07 15:30N 37°30' W 122°29'0 0.0
2017-Oct-07 14:54N 37°30' W 122°29'0 0.0
2017-Oct-07 01:45N 37°30' W 122°29'1 3.9
2017-Oct-07 01:30N 37°29' W 122°29'3 5.2
2017-Oct-07 00:59N 37°26' W 122°28'3 5.0
2017-Oct-07 00:18N 37°23' W 122°28'159 3.7
2017-Oct-05 05:14N 35°08' W 120°45'6 5.4
2017-Oct-05 04:12N 35°03' W 120°44'7 4.6
2017-Oct-05 02:43N 34°56' W 120°44'1 4.3
2017-Oct-05 02:24N 34°55' W 120°44'2 3.9
2017-Oct-05 02:00N 34°53' W 120°44'2 3.3
2017-Oct-05 01:30N 34°51' W 120°44'1 3.0
2017-Oct-05 01:00N 34°50' W 120°44'2 3.2
2017-Oct-05 00:30N 34°48' W 120°43'2 3.4
2017-Oct-04 23:58N 34°46' W 120°43'2 3.4
2017-Oct-04 23:27N 34°45' W 120°43'1 3.3
2017-Oct-04 23:00N 34°43' W 120°42'2 3.5
2017-Oct-04 22:29N 34°41' W 120°42'10 3.9
2017-Oct-04 19:49N 34°32' W 120°37'1 4.0
2017-Oct-04 19:30N 34°31' W 120°36'3 4.3
2017-Oct-04 18:47N 34°28' W 120°35'1 4.3
2017-Oct-04 18:27N 34°26' W 120°35'2 4.6
2017-Oct-04 17:56N 34°24' W 120°34'2 4.8
2017-Oct-04 17:30N 34°22' W 120°33'2 4.4
2017-Oct-04 17:00N 34°21' W 120°31'3 4.9
2017-Oct-04 16:29N 34°20' W 120°28'3 5.4
2017-Oct-04 16:00N 34°18' W 120°25'3 5.6
2017-Oct-04 15:30N 34°17' W 120°22'3 5.1
2017-Oct-04 15:00N 34°15' W 120°21'3 5.3
2017-Oct-04 14:30N 34°12' W 120°21'3 5.4
2017-Oct-04 14:00N 34°09' W 120°21'3 5.3
2017-Oct-04 13:30N 34°07' W 120°21'3 5.5
2017-Oct-04 12:57N 34°04' W 120°21'1 0.0
2017-Oct-03 19:39N 34°03' W 120°21'0 0.0
2017-Oct-03 16:04N 34°03' W 120°21'0 0.5
2017-Oct-03 15:58N 34°03' W 120°21'0 0.1
2017-Oct-03 15:28N 34°03' W 120°21'0 0.0
2017-Oct-03 14:52N 34°03' W 120°21'0 0.0
2017-Oct-03 14:00N 34°03' W 120°21'0 0.0
2017-Oct-03 13:00N 34°03' W 120°21'0 0.0
2017-Oct-03 12:18N 34°03' W 120°21'0 0.0
2017-Oct-03 12:00N 34°03' W 120°21'0 0.0
2017-Oct-03 11:24N 34°03' W 120°21'0 0.0
2017-Oct-03 10:54N 34°03' W 120°21'0 0.0
2017-Oct-03 10:00N 34°03' W 120°21'0 0.0
2017-Oct-03 09:24N 34°03' W 120°21'0 0.0
2017-Oct-03 08:57N 34°03' W 120°21'0 0.0
2017-Oct-03 08:06N 34°03' W 120°21'0 0.0
2017-Oct-03 08:00N 34°03' W 120°21'0 0.1
2017-Oct-03 07:15N 34°03' W 120°21'0 0.2
2017-Oct-03 06:59N 34°03' W 120°21'0 0.0
2017-Oct-02 23:52N 34°03' W 120°21'2 3.0
2017-Oct-02 23:21N 34°04' W 120°20'2 5.6
2017-Oct-02 23:00N 34°04' W 120°17'3 5.6
2017-Oct-02 22:28N 34°04' W 120°14'3 5.8
2017-Oct-02 21:59N 34°03' W 120°10'3 5.8
2017-Oct-02 21:30N 34°04' W 120°07'3 5.8
2017-Oct-02 20:59N 34°04' W 120°04'3 5.7
2017-Oct-02 20:30N 34°05' W 120°00'3 5.7
2017-Oct-02 19:55N 34°05' W 119°56'8 0.3
2017-Oct-01 21:57N 34°04' W 119°47'3 5.0
2017-Oct-01 21:23N 34°06' W 119°46'2 5.7
2017-Oct-01 20:57N 34°09' W 119°45'3 6.3
2017-Oct-01 20:27N 34°12' W 119°45'4 6.5
2017-Oct-01 19:54N 34°15' W 119°44'4 6.0
2017-Oct-01 19:11N 34°19' W 119°43'1 6.0
2017-Oct-01 18:59N 34°21' W 119°42'4 0.1
2017-Sep-30 01:58N 34°24' W 119°42'0 0.0
2017-Sep-29 23:28N 34°24' W 119°42'0 0.0
2017-Sep-29 22:20N 34°24' W 119°42'0 0.2
2017-Sep-29 21:58N 34°24' W 119°41'2 3.4
2017-Sep-29 21:29N 34°23' W 119°41'3 5.3
2017-Sep-29 20:54N 34°20' W 119°42'2 4.3
2017-Sep-29 20:20N 34°17' W 119°43'2 4.4
2017-Sep-29 19:50N 34°15' W 119°43'2 5.4
2017-Sep-29 19:24N 34°13' W 119°44'3 6.3
2017-Sep-29 18:59N 34°11' W 119°45'4 6.9
2017-Sep-29 18:24N 34°07' W 119°46'2 5.3
2017-Sep-29 18:00N 34°05' W 119°47'1 1.8
2017-Sep-29 17:19N 34°03' W 119°47'  

Dump ship's entire track history